createdAt,value
2023-01-07T00:01:47.354Z,20.60
2023-01-07T00:04:17.881Z,20.92
2023-01-07T00:06:50.457Z,21.33
2023-01-07T00:09:19.619Z,21.52
2023-01-07T00:11:48.741Z,21.58
2023-01-07T00:14:18.097Z,21.15
2023-01-07T00:16:47.175Z,21.55
2023-01-07T00:19:18.047Z,21.38
2023-01-07T00:21:47.145Z,22.75
2023-01-07T00:24:18.308Z,23.52
2023-01-07T00:26:47.667Z,22.55
2023-01-07T00:29:17.912Z,21.15
2023-01-07T00:31:47.086Z,21.30
2023-01-07T00:34:16.862Z,21.63
2023-01-07T00:36:48.085Z,21.65
2023-01-07T00:39:22.213Z,22.67
2023-01-07T00:42:10.036Z,22.42
2023-01-07T00:44:39.201Z,28.65
2023-01-07T00:47:08.356Z,26.77
2023-01-07T00:49:37.513Z,28.77
2023-01-07T00:52:06.932Z,22.77
2023-01-07T00:54:36.018Z,22.30
2023-01-07T00:57:05.501Z,24.45
2023-01-07T00:59:34.794Z,24.25
2023-01-07T01:02:04.040Z,22.23
2023-01-07T01:04:33.521Z,21.90
2023-01-07T01:07:02.695Z,23.70
2023-01-07T01:09:31.871Z,23.40
2023-01-07T01:12:01.074Z,24.38
2023-01-07T01:14:30.280Z,24.40
2023-01-07T01:16:59.509Z,24.08
2023-01-07T01:19:28.726Z,25.95
2023-01-07T01:21:58.009Z,24.52
2023-01-07T01:24:27.371Z,26.25
2023-01-07T01:26:56.567Z,23.38
2023-01-07T01:29:25.796Z,23.75
2023-01-07T01:31:55.176Z,25.60
2023-01-07T01:34:24.468Z,24.65
2023-01-07T01:36:53.684Z,25.95
2023-01-07T01:39:23.059Z,25.17
2023-01-07T01:41:52.844Z,25.77
2023-01-07T01:44:59.351Z,25.67
2023-01-07T01:48:00.667Z,27.30
2023-01-07T01:50:44.500Z,25.92
2023-01-07T01:53:23.531Z,25.48
2023-01-07T01:56:19.433Z,27.25
2023-01-07T01:58:57.100Z,25.20
2023-01-07T02:01:26.540Z,26.10
2023-01-07T02:03:58.619Z,25.02
2023-01-07T02:06:33.192Z,25.42
2023-01-07T02:09:02.664Z,25.05
2023-01-07T02:11:58.831Z,23.80
2023-01-07T02:15:08.495Z,22.73
2023-01-07T02:18:32.825Z,23.00
2023-01-07T02:21:29.343Z,23.20
2023-01-07T02:25:15.334Z,21.05
2023-01-07T02:28:35.707Z,21.10
2023-01-07T02:31:52.675Z,23.80
2023-01-07T02:34:44.938Z,21.58
2023-01-07T02:37:50.338Z,22.75
2023-01-07T02:40:22.640Z,24.20
2023-01-07T02:43:18.449Z,24.23
2023-01-07T02:46:07.835Z,22.33
2023-01-07T02:48:39.136Z,21.55
2023-01-07T02:51:08.428Z,21.38
2023-01-07T02:53:38.578Z,21.00
2023-01-07T02:56:37.197Z,18.98
2023-01-07T02:59:38.153Z,19.60
2023-01-07T03:02:31.596Z,19.95
2023-01-07T03:05:54.099Z,20.58
2023-01-07T03:08:37.077Z,19.73
2023-01-07T03:11:12.903Z,21.77
2023-01-07T03:14:15.826Z,20.90
2023-01-07T03:16:54.294Z,19.60
2023-01-07T03:19:37.534Z,21.10
2023-01-07T03:22:10.711Z,19.52
2023-01-07T03:24:42.354Z,20.25
2023-01-07T03:27:12.109Z,20.10
2023-01-07T03:29:41.414Z,19.40
2023-01-07T03:32:53.377Z,19.73
2023-01-07T03:35:26.310Z,19.13
2023-01-07T03:37:57.389Z,19.45
2023-01-07T03:40:27.263Z,20.40
2023-01-07T03:42:56.828Z,19.00
2023-01-07T03:45:29.473Z,19.85
2023-01-07T03:48:00.115Z,20.35
2023-01-07T03:50:29.433Z,18.27
2023-01-07T03:52:59.283Z,19.52
2023-01-07T03:55:28.621Z,18.65
2023-01-07T03:57:59.443Z,18.95
2023-01-07T04:00:29.134Z,19.92
2023-01-07T04:02:58.328Z,20.95
2023-01-07T04:05:27.662Z,19.75
2023-01-07T04:07:56.905Z,19.35
2023-01-07T04:10:26.174Z,19.17
2023-01-07T04:12:55.552Z,19.25
2023-01-07T04:15:24.842Z,19.10
2023-01-07T04:17:54.205Z,18.65
2023-01-07T04:20:23.656Z,19.20
2023-01-07T04:22:55.099Z,18.67
2023-01-07T04:25:24.329Z,18.38
2023-01-07T04:27:53.572Z,17.98
2023-01-07T04:30:22.761Z,19.42
2023-01-07T04:32:52.589Z,17.88
2023-01-07T04:35:21.793Z,18.35
2023-01-07T04:37:50.966Z,18.95
2023-01-07T04:40:20.244Z,17.42
2023-01-07T04:42:49.413Z,17.42
2023-01-07T04:45:18.774Z,17.48
2023-01-07T04:47:47.963Z,17.38
2023-01-07T04:50:17.481Z,15.80
2023-01-07T04:52:46.637Z,17.02
2023-01-07T04:55:16.016Z,16.52
2023-01-07T04:57:45.906Z,16.80
2023-01-07T05:00:15.721Z,15.77
2023-01-07T05:02:44.899Z,15.80
2023-01-07T05:05:13.977Z,16.02
2023-01-07T05:07:43.157Z,16.75
2023-01-07T05:10:12.296Z,16.20
2023-01-07T05:12:41.773Z,16.40
2023-01-07T05:15:11.453Z,15.50
2023-01-07T05:17:40.866Z,15.07
2023-01-07T05:20:11.284Z,16.48
2023-01-07T05:22:40.526Z,14.90
2023-01-07T05:25:10.243Z,15.80
2023-01-07T05:27:39.336Z,15.35
2023-01-07T05:30:09.256Z,15.32
2023-01-07T05:32:38.396Z,14.70
2023-01-07T05:35:08.042Z,14.77
2023-01-07T05:37:37.221Z,16.42
2023-01-07T05:40:07.840Z,15.02
2023-01-07T05:42:37.256Z,14.55
2023-01-07T05:45:07.222Z,14.27
2023-01-07T05:47:36.332Z,15.80
2023-01-07T05:50:05.850Z,14.95
2023-01-07T05:52:34.991Z,13.88
2023-01-07T05:55:04.179Z,15.43
2023-01-07T05:57:34.756Z,13.93
2023-01-07T06:00:04.089Z,15.23
2023-01-07T06:02:33.246Z,14.30
2023-01-07T06:05:02.482Z,14.57
2023-01-07T06:07:31.592Z,13.73
2023-01-07T06:10:02.828Z,13.63
2023-01-07T06:12:33.059Z,17.45
2023-01-07T06:15:02.368Z,16.83
2023-01-07T06:17:31.422Z,16.13
2023-01-07T06:20:00.859Z,15.65
2023-01-07T06:22:30.165Z,15.45
2023-01-07T06:24:59.729Z,14.27
2023-01-07T06:27:28.920Z,15.07
2023-01-07T06:29:58.013Z,14.50
2023-01-07T06:32:27.188Z,13.32
2023-01-07T06:34:56.354Z,13.98
2023-01-07T06:37:25.473Z,14.88
2023-01-07T06:39:54.767Z,15.73
2023-01-07T06:42:23.877Z,13.80
2023-01-07T06:44:52.984Z,14.30
2023-01-07T06:47:22.084Z,13.75
2023-01-07T06:49:51.230Z,13.95
2023-01-07T06:52:20.674Z,14.55
2023-01-07T06:54:49.898Z,14.82
2023-01-07T06:57:20.502Z,14.73
2023-01-07T06:59:49.738Z,14.60
2023-01-07T07:02:25.715Z,14.68
2023-01-07T07:04:56.250Z,12.88
2023-01-07T07:07:26.533Z,13.60
2023-01-07T07:09:55.787Z,13.68
2023-01-07T07:12:25.011Z,13.45
2023-01-07T07:14:54.499Z,14.98
2023-01-07T07:17:23.726Z,13.27
2023-01-07T07:19:52.928Z,15.50
2023-01-07T07:22:22.319Z,13.65
2023-01-07T07:24:51.610Z,13.07
2023-01-07T07:27:20.740Z,13.35
2023-01-07T07:29:50.000Z,12.45
2023-01-07T07:32:19.224Z,12.65
2023-01-07T07:34:48.458Z,12.05
2023-01-07T07:37:17.687Z,11.15
2023-01-07T07:39:46.916Z,11.38
2023-01-07T07:42:16.355Z,11.55
2023-01-07T07:44:45.546Z,11.90
2023-01-07T07:47:14.778Z,10.55
2023-01-07T07:49:43.944Z,10.40
2023-01-07T07:52:13.158Z,12.98
2023-01-07T07:54:42.466Z,11.82
2023-01-07T07:57:12.414Z,12.38
2023-01-07T07:59:41.599Z,11.20
2023-01-07T08:02:20.280Z,11.48
2023-01-07T08:04:49.472Z,11.02
2023-01-07T08:07:33.198Z,11.55
2023-01-07T08:10:03.147Z,11.07
2023-01-07T08:12:33.127Z,11.52
2023-01-07T08:15:02.266Z,11.90
2023-01-07T08:17:31.323Z,12.70
2023-01-07T08:20:00.429Z,11.23
2023-01-07T08:22:29.635Z,11.77
2023-01-07T08:24:58.764Z,11.70
2023-01-07T08:27:33.933Z,11.30
2023-01-07T08:30:03.110Z,10.65
2023-01-07T08:32:32.235Z,10.57
2023-01-07T08:35:01.308Z,11.93
2023-01-07T08:37:32.797Z,12.07
2023-01-07T08:40:05.895Z,12.05
2023-01-07T08:42:35.224Z,10.63
2023-01-07T08:45:04.803Z,11.13
2023-01-07T08:47:33.968Z,10.70
2023-01-07T08:50:04.078Z,10.95
2023-01-07T08:52:33.190Z,10.57
2023-01-07T08:55:02.308Z,9.38
2023-01-07T08:57:31.511Z,11.85
2023-01-07T09:00:02.860Z,10.52
2023-01-07T09:02:32.034Z,11.35
2023-01-07T09:05:01.176Z,11.05
2023-01-07T09:07:30.257Z,12.02
2023-01-07T09:09:59.444Z,11.88
2023-01-07T09:12:28.667Z,11.75
2023-01-07T09:14:57.909Z,12.02
2023-01-07T09:17:27.670Z,13.27
2023-01-07T09:19:56.822Z,13.43
2023-01-07T09:22:25.980Z,12.88
2023-01-07T09:24:55.103Z,12.73
2023-01-07T09:27:24.391Z,12.18
2023-01-07T09:29:59.409Z,12.35
2023-01-07T09:32:30.316Z,12.23
2023-01-07T09:34:59.398Z,12.05
2023-01-07T09:37:28.603Z,12.55
2023-01-07T09:39:57.806Z,12.55
2023-01-07T09:42:52.667Z,11.95
2023-01-07T09:45:33.350Z,12.80
2023-01-07T09:48:13.815Z,13.85
2023-01-07T09:51:06.607Z,12.63
2023-01-07T09:53:43.256Z,11.80
2023-01-07T09:56:38.593Z,12.98
2023-01-07T09:59:11.884Z,12.70
2023-01-07T10:02:35.413Z,13.80
2023-01-07T10:05:43.006Z,13.02
2023-01-07T10:08:45.606Z,13.07
2023-01-07T10:11:34.854Z,13.18
2023-01-07T10:14:37.090Z,15.18
2023-01-07T10:17:41.600Z,14.52
2023-01-07T10:20:34.777Z,15.10
2023-01-07T10:23:26.925Z,13.23
2023-01-07T10:25:59.889Z,13.43
2023-01-07T10:28:35.208Z,14.82
2023-01-07T10:31:07.839Z,16.83
2023-01-07T10:33:37.118Z,14.43
2023-01-07T10:36:42.956Z,15.38
2023-01-07T10:39:30.561Z,15.52
2023-01-07T10:42:19.447Z,17.83
2023-01-07T10:45:00.853Z,16.67
2023-01-07T10:48:06.252Z,17.48
2023-01-07T10:51:08.065Z,18.27
2023-01-07T10:54:14.652Z,19.98
2023-01-07T10:56:51.389Z,20.73
2023-01-07T10:59:24.213Z,22.05
2023-01-07T11:01:59.484Z,22.40
2023-01-07T11:04:28.911Z,20.63
2023-01-07T11:07:36.461Z,21.83
2023-01-07T11:10:07.129Z,21.83
2023-01-07T11:13:09.883Z,21.90
2023-01-07T11:16:05.324Z,22.25
2023-01-07T11:19:08.363Z,22.83
2023-01-07T11:21:53.209Z,23.10
2023-01-07T11:24:38.227Z,26.95
2023-01-07T11:27:17.040Z,27.90
2023-01-07T11:30:05.032Z,28.73
2023-01-07T11:32:41.586Z,30.45
2023-01-07T11:35:24.812Z,32.70
2023-01-07T11:37:54.235Z,32.05
2023-01-07T11:40:28.752Z,32.17
2023-01-07T11:43:24.627Z,29.75
2023-01-07T11:46:21.048Z,31.90
2023-01-07T11:49:01.836Z,34.50
2023-01-07T11:51:41.708Z,37.72
2023-01-07T11:54:28.182Z,33.72
2023-01-07T11:57:15.293Z,33.20
2023-01-07T11:59:45.767Z,29.60
2023-01-07T12:02:44.778Z,28.35
2023-01-07T12:05:28.575Z,31.38
2023-01-07T12:08:00.007Z,30.90
2023-01-07T12:10:36.815Z,30.77
2023-01-07T12:13:19.906Z,30.65
2023-01-07T12:15:56.350Z,29.30
2023-01-07T12:19:25.909Z,27.00
2023-01-07T12:22:43.633Z,26.00
2023-01-07T12:25:34.520Z,26.67
2023-01-07T12:28:23.401Z,28.42
2023-01-07T12:31:01.422Z,29.40
2023-01-07T12:34:00.644Z,29.70
2023-01-07T12:37:01.757Z,30.73
2023-01-07T12:39:40.263Z,29.27
2023-01-07T12:45:01.099Z,29.88
2023-01-07T12:47:42.451Z,29.15
2023-01-07T12:50:28.912Z,29.23
2023-01-07T12:53:20.488Z,29.55
2023-01-07T12:56:01.527Z,28.88
2023-01-07T12:58:53.230Z,28.52
2023-01-07T13:01:43.241Z,28.58
2023-01-07T13:04:46.436Z,27.23
2023-01-07T13:07:22.525Z,26.15
2023-01-07T13:10:02.677Z,26.70
2023-01-07T13:12:48.830Z,26.75
2023-01-07T13:15:34.790Z,26.05
2023-01-07T13:18:12.965Z,25.70
2023-01-07T13:21:06.245Z,26.42
2023-01-07T13:24:08.385Z,27.17
2023-01-07T13:27:02.160Z,24.85
2023-01-07T13:30:04.589Z,24.45
2023-01-07T13:33:21.336Z,25.85
2023-01-07T13:36:15.327Z,24.27
2023-01-07T13:39:27.626Z,24.17
2023-01-07T13:42:15.300Z,22.55
2023-01-07T13:45:20.870Z,22.90
2023-01-07T13:47:54.221Z,23.75
2023-01-07T13:50:43.397Z,23.63
2023-01-07T13:53:18.976Z,21.98
2023-01-07T13:55:50.215Z,22.52
2023-01-07T13:58:56.272Z,21.58
2023-01-07T14:01:28.483Z,25.90
2023-01-07T14:04:09.294Z,23.33
2023-01-07T14:06:51.971Z,21.48
2023-01-07T14:09:32.987Z,23.02
2023-01-07T14:13:02.357Z,22.63
2023-01-07T14:16:00.678Z,22.20
2023-01-07T14:21:26.159Z,23.30
2023-01-07T14:24:28.251Z,24.05
2023-01-07T14:27:33.909Z,26.00
2023-01-07T14:30:34.012Z,23.67
2023-01-07T14:33:06.004Z,24.73
2023-01-07T14:35:44.238Z,22.92
2023-01-07T14:38:31.429Z,25.15
2023-01-07T14:41:14.261Z,24.50
2023-01-07T14:43:49.165Z,24.67
2023-01-07T14:46:36.259Z,25.00
2023-01-07T14:49:45.544Z,25.70
2023-01-07T14:52:20.706Z,24.23
2023-01-07T14:55:19.528Z,25.20
2023-01-07T14:58:22.707Z,25.67
2023-01-07T15:01:30.125Z,25.83
2023-01-07T15:04:27.070Z,24.80
2023-01-07T15:07:01.992Z,25.08
2023-01-07T15:10:19.416Z,24.65
2023-01-07T15:13:11.897Z,26.95
2023-01-07T15:16:02.265Z,25.13
2023-01-07T15:18:55.087Z,25.45
2023-01-07T15:21:42.537Z,26.20
2023-01-07T15:24:30.423Z,24.45
2023-01-07T15:27:23.902Z,24.25
2023-01-07T15:30:31.317Z,25.20
2023-01-07T15:33:24.566Z,23.73
2023-01-07T15:35:54.181Z,24.35
2023-01-07T15:38:43.538Z,23.73
2023-01-07T15:41:40.645Z,24.35
2023-01-07T15:44:27.788Z,24.35
2023-01-07T15:46:58.271Z,24.20
2023-01-07T15:49:30.605Z,25.95
2023-01-07T15:52:02.685Z,24.67
2023-01-07T15:54:37.327Z,24.13
2023-01-07T15:57:18.682Z,24.27
2023-01-07T15:59:55.432Z,24.73
2023-01-07T16:02:45.726Z,24.08
2023-01-07T16:05:18.105Z,25.48
2023-01-07T16:07:58.173Z,24.33
2023-01-07T16:10:37.031Z,23.20
2023-01-07T16:13:19.311Z,24.27
2023-01-07T16:15:48.515Z,22.77
2023-01-07T16:18:20.170Z,22.88
2023-01-07T16:21:06.962Z,23.52
2023-01-07T16:23:39.097Z,22.25
2023-01-07T16:26:49.588Z,21.98
2023-01-07T16:29:30.602Z,23.15
2023-01-07T16:32:01.480Z,22.63
2023-01-07T16:34:31.275Z,21.92
2023-01-07T16:37:04.161Z,22.08
2023-01-07T16:39:43.615Z,21.75
2023-01-07T16:42:21.728Z,22.83
2023-01-07T16:44:56.812Z,23.27
2023-01-07T16:47:29.755Z,22.20
2023-01-07T16:50:21.469Z,20.90
2023-01-07T16:52:57.543Z,23.25
2023-01-07T16:56:03.597Z,21.27
2023-01-07T16:58:51.160Z,22.02
2023-01-07T17:01:32.020Z,20.33
2023-01-07T17:04:08.592Z,20.90
2023-01-07T17:06:44.685Z,20.27
2023-01-07T17:09:40.662Z,19.42
2023-01-07T17:12:50.609Z,18.88
2023-01-07T17:15:37.577Z,19.55
2023-01-07T17:18:12.789Z,20.48
2023-01-07T17:20:53.563Z,17.30
2023-01-07T17:23:28.740Z,18.90
2023-01-07T17:26:24.512Z,18.95
2023-01-07T17:29:01.603Z,19.35
2023-01-07T17:31:31.178Z,18.75
2023-01-07T17:34:00.339Z,19.02
2023-01-07T17:36:29.587Z,21.08
2023-01-07T17:38:58.693Z,19.30
2023-01-07T17:41:46.138Z,19.85
2023-01-07T17:44:15.521Z,20.75
2023-01-07T17:46:44.711Z,19.20
2023-01-07T17:49:14.119Z,18.65
2023-01-07T17:51:49.639Z,20.90
2023-01-07T17:54:28.089Z,21.20
2023-01-07T17:56:57.187Z,20.55
2023-01-07T17:59:27.021Z,19.83
2023-01-07T18:01:57.467Z,19.48
2023-01-07T18:04:26.844Z,19.88
2023-01-07T18:06:55.952Z,20.98
2023-01-07T18:09:25.055Z,21.05
2023-01-07T18:12:12.792Z,20.10
2023-01-07T18:14:41.925Z,20.75
2023-01-07T18:17:11.104Z,21.10
2023-01-07T18:19:40.850Z,20.73
2023-01-07T18:22:09.974Z,20.58
2023-01-07T18:24:39.078Z,21.77
2023-01-07T18:27:08.197Z,21.25
2023-01-07T18:29:37.266Z,21.17
2023-01-07T18:32:06.532Z,20.10
2023-01-07T18:34:35.718Z,21.42
2023-01-07T18:37:04.978Z,21.17
2023-01-07T18:39:34.115Z,21.60
2023-01-07T18:42:03.234Z,22.10
2023-01-07T18:44:32.957Z,22.05
2023-01-07T18:47:02.091Z,22.35
2023-01-07T18:49:31.380Z,22.63
2023-01-07T18:52:00.449Z,23.35
2023-01-07T18:54:31.828Z,22.38
2023-01-07T18:57:00.970Z,22.25
2023-01-07T18:59:30.435Z,22.70
2023-01-07T19:02:01.449Z,24.30
2023-01-07T19:04:33.110Z,22.90
2023-01-07T19:07:03.559Z,24.08
2023-01-07T19:09:32.845Z,23.33
2023-01-07T19:12:01.954Z,22.27
2023-01-07T19:14:31.031Z,22.63
2023-01-07T19:17:00.201Z,22.63
2023-01-07T19:19:34.249Z,23.25
2023-01-07T19:22:12.865Z,23.63
2023-01-07T19:24:41.995Z,23.58
2023-01-07T19:27:11.242Z,23.58
2023-01-07T19:29:40.529Z,22.83
2023-01-07T19:32:09.779Z,24.38
2023-01-07T19:34:38.947Z,24.98
2023-01-07T19:37:08.366Z,23.63
2023-01-07T19:39:37.516Z,23.63
2023-01-07T19:42:06.709Z,23.80
2023-01-07T19:44:37.590Z,22.30
2023-01-07T19:47:06.834Z,22.40
2023-01-07T19:49:37.016Z,24.30
2023-01-07T19:52:06.298Z,24.08
2023-01-07T19:54:36.077Z,22.77
2023-01-07T19:57:05.252Z,24.48
2023-01-07T19:59:35.939Z,23.30
2023-01-07T20:02:06.727Z,23.73
2023-01-07T20:04:36.101Z,24.63
2023-01-07T20:07:05.257Z,23.95
2023-01-07T20:09:35.382Z,23.13
2023-01-07T20:12:04.646Z,23.77
2023-01-07T20:14:33.847Z,24.75
2023-01-07T20:17:03.104Z,24.15
2023-01-07T20:19:32.487Z,24.20
2023-01-07T20:22:01.715Z,23.45
2023-01-07T20:24:30.888Z,24.05
2023-01-07T20:27:01.162Z,25.00
2023-01-07T20:29:30.637Z,23.55
2023-01-07T20:31:59.985Z,25.27
2023-01-07T20:34:29.182Z,24.38
2023-01-07T20:36:58.334Z,25.52
2023-01-07T20:39:27.536Z,26.20
2023-01-07T20:41:56.716Z,25.33
2023-01-07T20:44:25.946Z,25.67
2023-01-07T20:46:55.147Z,22.70
2023-01-07T20:49:25.281Z,23.45
2023-01-07T20:51:54.558Z,23.52
2023-01-07T20:54:23.788Z,22.77
2023-01-07T20:56:53.018Z,22.95
2023-01-07T20:59:22.313Z,21.85
2023-01-07T21:01:51.732Z,24.48
2023-01-07T21:04:21.042Z,24.38
2023-01-07T21:06:50.582Z,26.85
2023-01-07T21:09:20.630Z,24.05
2023-01-07T21:11:49.849Z,22.63
2023-01-07T21:14:19.097Z,23.25
2023-01-07T21:16:48.440Z,23.02
2023-01-07T21:19:17.744Z,23.73
2023-01-07T21:21:47.956Z,23.45
2023-01-07T21:24:18.389Z,23.65
2023-01-07T21:26:48.400Z,23.10
2023-01-07T21:29:17.663Z,23.02
2023-01-07T21:31:47.076Z,23.80
2023-01-07T21:34:16.421Z,23.92
2023-01-07T21:36:45.649Z,23.50
2023-01-07T21:39:15.320Z,26.92
2023-01-07T21:41:44.486Z,25.33
2023-01-07T21:44:14.446Z,26.30
2023-01-07T21:46:43.638Z,28.23
2023-01-07T21:49:13.025Z,27.10
2023-01-07T21:51:42.195Z,29.08
2023-01-07T21:54:11.828Z,29.02
2023-01-07T21:56:41.063Z,27.45
2023-01-07T21:59:11.646Z,27.17
2023-01-07T22:01:40.811Z,28.77
2023-01-07T22:04:10.105Z,25.83
2023-01-07T22:06:39.320Z,28.42
2023-01-07T22:09:16.076Z,28.80
2023-01-07T22:11:45.338Z,29.67
2023-01-07T22:14:19.615Z,28.83
2023-01-07T22:16:49.307Z,26.52
2023-01-07T22:19:18.608Z,26.98
2023-01-07T22:21:47.811Z,26.42
2023-01-07T22:24:16.874Z,26.13
2023-01-07T22:26:46.045Z,27.10
2023-01-07T22:29:16.471Z,27.50
2023-01-07T22:31:49.137Z,26.25
2023-01-07T22:34:18.537Z,27.73
2023-01-07T22:37:10.991Z,25.23
2023-01-07T22:40:01.859Z,27.02
2023-01-07T22:42:54.145Z,30.77
2023-01-07T22:45:40.833Z,30.00
2023-01-07T22:48:15.119Z,30.48
2023-01-07T22:50:44.363Z,30.80
2023-01-07T22:53:14.178Z,29.58
2023-01-07T22:55:43.491Z,30.45
2023-01-07T22:58:12.733Z,29.33
2023-01-07T23:00:54.192Z,28.63
2023-01-07T23:03:25.046Z,28.70
2023-01-07T23:05:54.148Z,30.02
2023-01-07T23:08:23.246Z,26.83
2023-01-07T23:10:52.409Z,29.90
2023-01-07T23:13:21.477Z,29.15
2023-01-07T23:15:50.652Z,28.88
2023-01-07T23:18:19.804Z,27.42
2023-01-07T23:20:48.935Z,26.58
2023-01-07T23:23:18.107Z,28.17
2023-01-07T23:25:52.287Z,26.83
2023-01-07T23:28:21.847Z,28.95
2023-01-07T23:30:50.951Z,28.08
2023-01-07T23:33:20.017Z,30.48
2023-01-07T23:35:49.181Z,29.48
2023-01-07T23:38:18.274Z,30.02
2023-01-07T23:40:47.356Z,31.00
2023-01-07T23:43:16.464Z,31.83
2023-01-07T23:45:45.618Z,31.15
2023-01-07T23:48:14.775Z,32.50
2023-01-07T23:50:43.852Z,33.67
2023-01-07T23:53:12.947Z,36.05
2023-01-07T23:55:42.376Z,33.53
2023-01-07T23:58:11.501Z,33.88
